Mc Kellar Sipes Regional Airport
KMKL : now visible

Airfield :











YOU CAN JOIN US ON...

 
LOGIN :

Register | Disclaimer

   EN    FR    IT 

 









Legend :    VFR   Marginal VFR   IFR   Intensive IFR   Very Intensive IFR
Visi :
Ceiling :
>= 8 km
>= 3000ft
5 to 8 km
1000 to 3000 ft
1500m to 5 km
500 to 1000 ft
800 to 1500m
200 to 500 ft
< 800m
< 200 ft
Symbols :   Thunderstorms  Fog  Heavy snow  Heavy precipitations  Wind > 20 kt







- Airport Elevation : 434 ft
- IATA code : MKL


KMKL - Mc Kellar Sipes Regional

CURRENT METAR :
  • 181816Z 20010KT 10SM FEW009 BKN034 OVC042 19/18 A2974 RMK AO2 T01940178

EXPIRED METARs :
  • 181805Z 21009KT 10SM SCT010 BKN015 OVC028 19/17 A2974 RMK AO2 T01890172
  • 181753Z 20011G19KT 10SM BKN010 BKN015 OVC028 19/18 A2975 RMK AO2 CIG 007V013 SLP069 60004 T01890178 10194 20172 58010
  • 181708Z 18011KT 3SM BR BKN007 BKN013 OVC048 18/18 A2975 RMK AO2 T01830178
  • 181706Z 17011G15KT 2 1/2SM BR SCT007 BKN010 OVC030 18/18 A2976 RMK AO2 T01830178
  • 181653Z 18009KT 2 1/2SM BR BKN009 OVC012 18/17 A2976 RMK AO2 CIG 004V011 SLP075 T01780172
  • 181641Z 18007KT 3SM BR SCT007 BKN010 OVC017 18/18 A2976 RMK AO2 CIG 009V013 T01830178
  • 181637Z 18006KT 2 1/2SM BR BKN007 BKN012 OVC019 18/17 A2976 RMK AO2 CIG 004V010 T01780172
  • 181615Z 18005KT 4SM BR BKN005 BKN009 OVC022 18/17 A2978 RMK AO2 T01780172
  • 181603Z 17005KT 3SM BR SCT004 SCT017 OVC022 18/17 A2977 RMK AO2 T01780172
  • 181553Z 16005KT 2 1/2SM BR FEW004 BKN017 OVC023 18/17 A2978 RMK AO2 RAB03E38 SLP079 P0004 T01780172
  • 181541Z 18003KT 2 1/2SM BR BKN015 OVC023 17/17 A2978 RMK AO2 RAB03E38 P0004 T01720167

TAF KMKL
Valid from the 18 at 18:00 until the 19 at 18:00 UTC


181746Z 1818/1918 18010KT 3SM -RA BR SCT007 BKN015
TEMPO 1818/1819 BKN007
FM181900 19010KT P6SM VCSH BKN030
FM182200 20010KT 3SM -RA BR VCTS BKN025CB OVC040
FM190200 35015G22KT 5SM -SHRA BR OVC015
FM190400 35015G22KT P6SM VCSH OVC009
FM191400 35014G20KT P6SM -SHRA OVC015
KZME FIR / North America



MET'MAP, your aeronautical weather chart ! - Copyright ORBIFLY December 2007 - Disclaimer

ORBIFLY MET'MAP TEAM :

Programming & Development : Alexandra Zaïnal
Concept & Development : Baudouin d'Aumeries
Co-Development & Prog : Marc-Olivier Méhu
Technical & hardware support : Manuel Goepfert

Contact : metmap@orbifly.com




SOURCES & CREDITS :

   NOAA       Earth
Advisory